Madeira Beach, Florida
Current Conditions -  °F | °C
As of 12:53 PM on Friday 21 Nov 2014 (Local Time) from KSPG Reporting Station
Broken Clouds Broken Clouds  
Wind Chill: 68°   Ceiling: 10000
Heat Index: 68°   Visibility: 10mi
Dew Point: 55°   Wind: 14mph
Humidity: 63%   Direction: 70°ENE
Pressure: 30.21"   Gusts: NA
Location:  27.7976°N, 82.7976°W
Report Text: KSPG 211753Z 07012KT 10SM BKN100 20/13 A3021 RMK AO2 SLP230 T02000128 10200 20150 58018
Loading
Personal Weather Stations






























Interactive Weather Map New forecast layout! Learn more

10-Day Weather Forecast

Advertisements
Track Severe Weather on mobile